createdAt,value
2022-12-18T00:01:33.989Z,101801.72
2022-12-18T00:06:36.470Z,101793.22
2022-12-18T00:11:37.826Z,101798.59
2022-12-18T00:16:40.090Z,101803.94
2022-12-18T00:21:42.813Z,101804.06
2022-12-18T00:26:44.205Z,101803.25
2022-12-18T00:31:46.836Z,101794.59
2022-12-18T00:36:49.213Z,101794.66
2022-12-18T00:42:08.938Z,101797.25
2022-12-18T00:47:10.286Z,101797.38
2022-12-18T00:52:11.715Z,101801.59
2022-12-18T00:57:13.077Z,101804.06
2022-12-18T01:02:14.561Z,101810.28
2022-12-18T01:07:15.978Z,101817.59
2022-12-18T01:12:17.371Z,101812.22
2022-12-18T01:17:18.754Z,101814.63
2022-12-18T01:22:20.130Z,101824.34
2022-12-18T01:27:21.533Z,101821.69
2022-12-18T01:32:23.360Z,101827.78
2022-12-18T01:37:24.806Z,101831.53
2022-12-18T01:42:26.546Z,101846.44
2022-12-18T01:47:45.740Z,101844.69
2022-12-18T01:52:50.864Z,101832.56
2022-12-18T01:57:57.289Z,101821.28
2022-12-18T02:02:58.746Z,101829.91
2022-12-18T02:08:05.884Z,101827.31
2022-12-18T02:13:21.890Z,101809.56
2022-12-18T02:18:33.424Z,101811.47
2022-12-18T02:23:53.432Z,101821.13
2022-12-18T02:29:00.563Z,101807.34
2022-12-18T02:34:06.500Z,101795.91
2022-12-18T02:39:11.576Z,101813.09
2022-12-18T02:44:15.140Z,101810.50
2022-12-18T02:49:28.858Z,101815.00
2022-12-18T02:55:18.100Z,101819.44
2022-12-18T03:00:25.944Z,101820.28
2022-12-18T03:05:39.524Z,101802.03
2022-12-18T03:10:46.465Z,101830.06
2022-12-18T03:15:52.476Z,101813.56
2022-12-18T03:20:56.621Z,101809.13
2022-12-18T03:26:07.320Z,101805.66
2022-12-18T03:31:12.895Z,101806.69
2022-12-18T03:36:15.251Z,101810.25
2022-12-18T03:41:24.395Z,101806.03
2022-12-18T03:46:43.081Z,101797.56
2022-12-18T03:51:54.189Z,101805.44
2022-12-18T03:57:05.727Z,101809.72
2022-12-18T04:02:08.993Z,101809.03
2022-12-18T04:07:11.345Z,101823.19
2022-12-18T04:12:12.704Z,101809.16
2022-12-18T04:17:14.714Z,101805.72
2022-12-18T04:22:16.419Z,101794.53
2022-12-18T04:27:17.816Z,101801.63
2022-12-18T04:32:19.244Z,101805.97
2022-12-18T04:37:20.608Z,101811.16
2022-12-18T04:42:22.111Z,101807.03
2022-12-18T04:47:23.445Z,101800.84
2022-12-18T04:52:25.012Z,101804.44
2022-12-18T04:57:27.002Z,101798.31
2022-12-18T05:02:28.462Z,101798.50
2022-12-18T05:07:29.900Z,101795.91
2022-12-18T05:12:32.481Z,101798.66
2022-12-18T05:17:33.895Z,101809.97
2022-12-18T05:22:35.256Z,101819.53
2022-12-18T05:27:36.599Z,101818.75
2022-12-18T05:32:38.428Z,101815.28
2022-12-18T05:37:43.171Z,101817.09
2022-12-18T05:42:44.941Z,101807.47
2022-12-18T05:47:46.299Z,101806.66
2022-12-18T05:52:47.644Z,101811.88
2022-12-18T05:57:48.998Z,101813.63
2022-12-18T06:02:50.455Z,101804.16
2022-12-18T06:07:51.934Z,101811.16
2022-12-18T06:12:53.731Z,101819.13
2022-12-18T06:17:55.178Z,101836.81
2022-12-18T06:22:56.566Z,101829.91
2022-12-18T06:27:57.898Z,101834.28
2022-12-18T06:32:59.365Z,101835.94
2022-12-18T06:38:02.387Z,101832.50
2022-12-18T06:43:03.716Z,101841.16
2022-12-18T06:48:05.179Z,101847.06
2022-12-18T06:53:06.532Z,101857.53
2022-12-18T06:58:08.838Z,101859.19
2022-12-18T07:03:12.672Z,101861.75
2022-12-18T07:08:14.098Z,101856.47
2022-12-18T07:13:18.812Z,101876.53
2022-12-18T07:18:20.257Z,101871.22
2022-12-18T07:23:21.607Z,101876.25
2022-12-18T07:28:22.994Z,101864.78
2022-12-18T07:33:26.154Z,101853.41
2022-12-18T07:38:28.228Z,101861.25
2022-12-18T07:43:29.814Z,101869.06
2022-12-18T07:48:31.731Z,101867.44
2022-12-18T07:53:34.908Z,101866.56
2022-12-18T07:58:37.155Z,101864.78
2022-12-18T08:03:40.360Z,101862.28
2022-12-18T08:08:43.102Z,101869.13
2022-12-18T08:13:44.467Z,101865.53
2022-12-18T08:18:46.262Z,101859.22
2022-12-18T08:23:48.722Z,101858.09
2022-12-18T08:28:51.306Z,101867.56
2022-12-18T08:33:53.947Z,101856.06
2022-12-18T08:38:57.548Z,101852.22
2022-12-18T08:44:17.849Z,101842.44
2022-12-18T08:49:19.301Z,101850.97
2022-12-18T08:54:20.674Z,101839.28
2022-12-18T08:59:22.072Z,101831.19
2022-12-18T09:04:23.743Z,101829.19
2022-12-18T09:09:25.282Z,101838.59
2022-12-18T09:14:26.620Z,101838.38
2022-12-18T09:19:28.112Z,101840.81
2022-12-18T09:24:29.501Z,101857.22
2022-12-18T09:29:31.049Z,101851.16
2022-12-18T09:34:32.399Z,101857.78
2022-12-18T09:39:36.806Z,101856.75
2022-12-18T09:44:47.347Z,101858.09
2022-12-18T09:49:56.010Z,101839.97
2022-12-18T09:55:10.483Z,101849.81
2022-12-18T10:00:19.982Z,101845.72
2022-12-18T10:05:41.044Z,101832.84
2022-12-18T10:11:02.375Z,101852.31
2022-12-18T10:16:16.406Z,101847.44
2022-12-18T10:21:24.775Z,101839.19
2022-12-18T10:26:26.318Z,101826.09
2022-12-18T10:31:27.764Z,101817.06
2022-12-18T10:36:30.033Z,101810.84
2022-12-18T10:41:33.215Z,101806.63
2022-12-18T10:46:34.605Z,101813.88
2022-12-18T10:51:38.406Z,101821.06
2022-12-18T10:56:40.442Z,101813.47
2022-12-18T11:01:48.445Z,101810.25
2022-12-18T11:06:59.023Z,101811.44
2022-12-18T11:12:03.778Z,101816.53
2022-12-18T11:22:32.899Z,101788.09
2022-12-18T11:27:34.386Z,101799.03
2022-12-18T11:32:41.708Z,101795.16
2022-12-18T11:37:48.820Z,101785.53
2022-12-18T11:42:59.096Z,101774.81
2022-12-18T11:48:19.607Z,101776.03
2022-12-18T11:53:21.496Z,101776.16
2022-12-18T11:58:35.765Z,101765.16
2022-12-18T12:04:14.854Z,101768.47
2022-12-18T12:09:47.784Z,101767.19
2022-12-18T12:15:18.055Z,101772.28
2022-12-18T12:20:44.252Z,101760.72
2022-12-18T12:25:48.969Z,101756.06
2022-12-18T12:31:16.249Z,101774.81
2022-12-18T12:36:31.744Z,101770.13
2022-12-18T12:41:55.102Z,101736.31
2022-12-18T12:47:01.528Z,101738.75
2022-12-18T12:52:12.826Z,101738.03
2022-12-18T12:57:21.349Z,101729.97
2022-12-18T13:02:25.114Z,101726.88
2022-12-18T13:07:33.569Z,101726.09
2022-12-18T13:12:53.679Z,101730.22
2022-12-18T13:18:28.891Z,101729.69
2022-12-18T13:23:32.062Z,101718.84
2022-12-18T13:28:33.737Z,101727.41
2022-12-18T13:33:35.397Z,101728.34
2022-12-18T13:38:40.770Z,101714.00
2022-12-18T13:43:50.600Z,101718.66
2022-12-18T13:48:56.617Z,101706.28
2022-12-18T13:54:06.942Z,101692.88
2022-12-18T13:59:41.091Z,101689.31
2022-12-18T14:04:46.419Z,101688.28
2022-12-18T14:09:55.616Z,101680.84
2022-12-18T14:15:04.841Z,101693.44
2022-12-18T14:20:15.633Z,101696.94
2022-12-18T14:25:23.078Z,101688.00
2022-12-18T14:30:24.540Z,101689.31
2022-12-18T14:35:25.954Z,101685.59
2022-12-18T14:40:27.439Z,101691.59
2022-12-18T14:45:45.271Z,101688.28
2022-12-18T14:51:15.314Z,101693.88
2022-12-18T14:56:28.123Z,101693.88
2022-12-18T15:01:38.177Z,101680.59
2022-12-18T15:06:40.998Z,101677.38
2022-12-18T15:11:42.303Z,101681.97
2022-12-18T15:16:46.238Z,101671.75
2022-12-18T15:21:47.759Z,101678.25
2022-12-18T15:26:49.883Z,101678.53
2022-12-18T15:32:06.362Z,101673.59
2022-12-18T15:37:08.857Z,101657.97
2022-12-18T15:42:29.786Z,101649.81
2022-12-18T15:47:31.154Z,101652.66
2022-12-18T15:52:44.946Z,101651.53
2022-12-18T15:57:46.349Z,101642.25
2022-12-18T16:02:47.905Z,101642.44
2022-12-18T16:07:49.597Z,101651.41
2022-12-18T16:12:51.302Z,101642.00
2022-12-18T16:17:53.149Z,101648.25
2022-12-18T16:22:54.505Z,101634.97
2022-12-18T16:27:57.256Z,101640.25
2022-12-18T16:32:59.281Z,101624.91
2022-12-18T16:38:00.662Z,101618.88
2022-12-18T16:43:02.073Z,101603.78
2022-12-18T16:48:03.991Z,101610.44
2022-12-18T16:53:05.349Z,101603.63
2022-12-18T16:58:06.719Z,101600.50
2022-12-18T17:03:08.315Z,101598.72
2022-12-18T17:08:09.922Z,101592.66
2022-12-18T17:13:11.353Z,101592.38
2022-12-18T17:18:12.860Z,101601.44
2022-12-18T17:23:14.242Z,101602.22
2022-12-18T17:28:15.674Z,101596.72
2022-12-18T17:33:17.105Z,101602.44
2022-12-18T17:38:18.524Z,101593.34
2022-12-18T17:43:20.083Z,101592.19
2022-12-18T17:48:21.935Z,101587.84
2022-12-18T17:53:23.596Z,101593.03
2022-12-18T17:58:25.046Z,101584.00
2022-12-18T18:03:26.711Z,101592.75
2022-12-18T18:08:29.001Z,101587.41
2022-12-18T18:13:49.522Z,101579.56
2022-12-18T18:18:51.248Z,101579.50
2022-12-18T18:23:52.662Z,101579.56
2022-12-18T18:28:55.111Z,101577.41
2022-12-18T18:33:57.642Z,101582.63
2022-12-18T18:39:03.098Z,101567.34
2022-12-18T18:44:05.014Z,101569.00
2022-12-18T18:49:06.871Z,101579.34
2022-12-18T18:54:09.642Z,101558.16
2022-12-18T18:59:11.045Z,101555.28
2022-12-18T19:04:12.545Z,101547.28
2022-12-18T19:09:13.958Z,101531.44
2022-12-18T19:14:16.078Z,101522.63
2022-12-18T19:19:20.954Z,101515.25
2022-12-18T19:24:22.814Z,101523.00
2022-12-18T19:29:24.223Z,101519.19
2022-12-18T19:34:25.794Z,101513.53
2022-12-18T19:39:27.321Z,101532.03
2022-12-18T19:44:28.736Z,101526.59
2022-12-18T19:49:31.995Z,101513.63
2022-12-18T19:54:33.641Z,101493.13
2022-12-18T19:59:36.877Z,101503.50
2022-12-18T20:04:40.473Z,101498.66
2022-12-18T20:09:41.827Z,101498.88
2022-12-18T20:14:43.707Z,101498.78
2022-12-18T20:19:45.438Z,101501.44
2022-12-18T20:24:46.838Z,101504.84
2022-12-18T20:29:50.971Z,101496.16
2022-12-18T20:34:52.327Z,101495.69
2022-12-18T20:39:55.024Z,101498.00
2022-12-18T20:44:56.845Z,101505.31
2022-12-18T20:49:58.407Z,101492.53
2022-12-18T20:54:59.854Z,101485.31
2022-12-18T21:00:02.512Z,101483.44
2022-12-18T21:05:04.430Z,101477.22
2022-12-18T21:10:06.410Z,101484.38
2022-12-18T21:15:09.510Z,101493.88
2022-12-18T21:20:11.091Z,101488.94
2022-12-18T21:25:18.623Z,101488.84
2022-12-18T21:30:20.103Z,101496.28
2022-12-18T21:35:21.492Z,101489.06
2022-12-18T21:40:24.951Z,101494.34
2022-12-18T21:45:26.311Z,101502.66
2022-12-18T21:50:27.707Z,101501.19
2022-12-18T21:55:29.061Z,101493.97
2022-12-18T22:00:30.393Z,101500.94
2022-12-18T22:05:31.764Z,101480.53
2022-12-18T22:10:33.185Z,101476.53
2022-12-18T22:15:34.747Z,101480.03
2022-12-18T22:20:36.167Z,101470.66
2022-12-18T22:25:39.681Z,101468.00
2022-12-18T22:30:41.514Z,101484.50
2022-12-18T22:35:43.007Z,101482.00
2022-12-18T22:40:44.790Z,101477.25
2022-12-18T22:45:47.283Z,101468.34
2022-12-18T22:50:49.558Z,101458.53
2022-12-18T22:55:52.289Z,101452.31
2022-12-18T23:00:54.218Z,101458.53
2022-12-18T23:06:03.075Z,101452.13
2022-12-18T23:11:05.325Z,101442.72
2022-12-18T23:16:09.015Z,101442.72
2022-12-18T23:21:13.919Z,101451.34
2022-12-18T23:26:21.914Z,101444.78
2022-12-18T23:31:24.739Z,101425.41
2022-12-18T23:36:26.406Z,101428.28
2022-12-18T23:41:31.329Z,101438.53
2022-12-18T23:46:35.973Z,101418.41
2022-12-18T23:51:37.738Z,101425.31
2022-12-18T23:56:40.894Z,101418.03
